Appleton, Minnesota
Current Conditions -  °F | °C
As of 5:54 PM on Friday 28 Nov 2014 (Local Time) from KAQP Reporting Station
Clear Clear  
Wind Chill:   Ceiling: Unl
Heat Index: 18°   Visibility: 10mi
Dew Point: 14°   Wind: 12mph
Humidity: 86%   Direction: 120°ESE
Pressure: 29.76"   Gusts: NA
Location:  45.2°N, 96.02°W
Report Text: KAQP 282354Z AUTO 12010KT 10SM CLR M08/M10 A2976 RMK AO2
Loading
Personal Weather Stations






























Interactive Weather Map New forecast layout! Learn more

10-Day Weather Forecast

Advertisements
Track Severe Weather on mobile